createdAt,value
2023-04-16T00:01:07.448Z,15.30
2023-04-16T00:02:40.780Z,15.47
2023-04-16T00:04:14.197Z,15.70
2023-04-16T00:05:47.301Z,14.73
2023-04-16T00:07:20.365Z,14.90
2023-04-16T00:08:53.468Z,15.63
2023-04-16T00:10:27.956Z,14.80
2023-04-16T00:12:01.182Z,13.97
2023-04-16T00:13:33.426Z,14.80
2023-04-16T00:15:07.281Z,14.30
2023-04-16T00:16:40.347Z,15.10
2023-04-16T00:18:12.449Z,13.83
2023-04-16T00:19:45.563Z,14.43
2023-04-16T00:21:18.780Z,14.33
2023-04-16T00:22:51.509Z,14.53
2023-04-16T00:24:24.633Z,14.33
2023-04-16T00:25:59.998Z,14.23
2023-04-16T00:27:33.232Z,14.53
2023-04-16T00:29:06.369Z,14.00
2023-04-16T00:30:39.962Z,14.43
2023-04-16T00:32:13.096Z,14.70
2023-04-16T00:33:45.186Z,15.03
2023-04-16T00:35:18.461Z,14.63
2023-04-16T00:36:51.548Z,14.77
2023-04-16T00:38:24.594Z,14.53
2023-04-16T00:39:57.650Z,14.40
2023-04-16T00:41:32.094Z,14.23
2023-04-16T00:43:05.258Z,13.67
2023-04-16T00:44:37.475Z,13.23
2023-04-16T00:46:10.916Z,12.60
2023-04-16T00:47:44.347Z,12.53
2023-04-16T00:49:17.695Z,12.67
2023-04-16T00:50:50.842Z,12.60
2023-04-16T00:52:24.114Z,13.03
2023-04-16T00:53:58.894Z,12.53
2023-04-16T00:55:32.659Z,13.10
2023-04-16T00:57:06.849Z,12.80
2023-04-16T00:58:40.139Z,13.27
2023-04-16T01:00:14.375Z,13.50
2023-04-16T01:01:47.720Z,13.80
2023-04-16T01:03:19.971Z,14.50
2023-04-16T01:04:54.651Z,14.33
2023-04-16T01:06:27.906Z,13.33
2023-04-16T01:08:01.620Z,13.33
2023-04-16T01:09:34.688Z,14.20
2023-04-16T01:11:09.712Z,13.57
2023-04-16T01:12:44.226Z,13.37
2023-04-16T01:14:17.311Z,12.63
2023-04-16T01:15:50.575Z,13.30
2023-04-16T01:17:23.754Z,12.70
2023-04-16T01:18:55.940Z,13.13
2023-04-16T01:20:29.360Z,13.23
2023-04-16T01:22:03.824Z,13.63
2023-04-16T01:23:37.125Z,13.93
2023-04-16T01:25:14.527Z,14.80
2023-04-16T01:26:47.594Z,14.90
2023-04-16T01:28:21.100Z,14.10
2023-04-16T01:29:54.391Z,14.07
2023-04-16T01:31:33.328Z,12.93
2023-04-16T01:33:15.982Z,13.37
2023-04-16T01:34:49.035Z,13.83
2023-04-16T01:36:21.099Z,14.27
2023-04-16T01:37:55.683Z,14.80
2023-04-16T01:39:28.904Z,15.33
2023-04-16T01:41:02.567Z,13.57
2023-04-16T01:42:35.606Z,14.33
2023-04-16T01:44:08.666Z,14.70
2023-04-16T01:45:40.803Z,14.73
2023-04-16T01:47:14.476Z,13.50
2023-04-16T01:48:48.178Z,13.80
2023-04-16T01:50:22.229Z,13.83
2023-04-16T01:51:55.436Z,13.10
2023-04-16T01:53:29.855Z,13.13
2023-04-16T01:55:03.536Z,13.63
2023-04-16T01:56:36.877Z,13.83
2023-04-16T01:58:11.015Z,13.60
2023-04-16T01:59:43.421Z,14.17
2023-04-16T02:01:16.608Z,15.40
2023-04-16T02:02:50.741Z,15.10
2023-04-16T02:04:31.767Z,15.37
2023-04-16T02:06:04.458Z,15.23
2023-04-16T02:07:37.493Z,15.17
2023-04-16T02:09:12.033Z,14.87
2023-04-16T02:10:47.031Z,15.60
2023-04-16T02:12:20.514Z,14.30
2023-04-16T02:13:54.490Z,14.27
2023-04-16T02:15:27.759Z,14.40
2023-04-16T02:17:01.290Z,15.57
2023-04-16T02:18:44.669Z,15.07
2023-04-16T02:20:20.558Z,13.30
2023-04-16T02:22:13.573Z,13.03
2023-04-16T02:23:47.960Z,14.10
2023-04-16T02:25:24.252Z,13.60
2023-04-16T02:26:59.614Z,13.83
2023-04-16T02:28:32.652Z,12.50
2023-04-16T02:30:05.674Z,12.87
2023-04-16T02:31:40.939Z,12.63
2023-04-16T02:33:15.011Z,13.53
2023-04-16T02:34:57.129Z,12.50
2023-04-16T02:36:31.796Z,12.83
2023-04-16T02:38:06.168Z,12.23
2023-04-16T02:39:40.770Z,12.30
2023-04-16T02:41:15.323Z,12.13
2023-04-16T02:42:47.411Z,12.87
2023-04-16T02:44:20.582Z,12.43
2023-04-16T02:45:53.364Z,12.80
2023-04-16T02:47:26.419Z,12.97
2023-04-16T02:48:59.458Z,14.57
2023-04-16T02:50:32.516Z,15.23
2023-04-16T02:52:04.815Z,15.67
2023-04-16T02:53:37.937Z,14.77
2023-04-16T02:55:11.547Z,15.47
2023-04-16T02:56:45.964Z,17.20
2023-04-16T02:58:18.038Z,16.50
2023-04-16T02:59:51.081Z,16.63
2023-04-16T03:01:23.241Z,16.23
2023-04-16T03:02:56.518Z,15.93
2023-04-16T03:04:29.839Z,16.90
2023-04-16T03:06:02.988Z,16.53
2023-04-16T03:07:35.350Z,16.67
2023-04-16T03:09:09.038Z,16.83
2023-04-16T03:10:41.752Z,17.37
2023-04-16T03:12:16.195Z,16.77
2023-04-16T03:13:49.576Z,17.30
2023-04-16T03:15:22.631Z,16.57
2023-04-16T03:16:55.691Z,15.73
2023-04-16T03:18:28.983Z,14.50
2023-04-16T03:20:02.263Z,14.57
2023-04-16T03:21:35.424Z,14.33
2023-04-16T03:23:08.489Z,14.67
2023-04-16T03:24:41.576Z,14.13
2023-04-16T03:26:14.615Z,14.40
2023-04-16T03:27:49.122Z,13.70
2023-04-16T03:29:23.002Z,14.10
2023-04-16T03:30:56.345Z,13.97
2023-04-16T03:32:28.649Z,14.03
2023-04-16T03:34:01.812Z,13.80
2023-04-16T03:35:34.913Z,13.07
2023-04-16T03:37:11.925Z,13.50
2023-04-16T03:38:45.295Z,14.77
2023-04-16T03:40:18.716Z,15.57
2023-04-16T03:41:51.780Z,15.33
2023-04-16T03:43:26.314Z,15.30
2023-04-16T03:44:59.447Z,17.43
2023-04-16T03:46:32.840Z,16.37
2023-04-16T03:48:06.446Z,16.57
2023-04-16T03:49:39.471Z,16.40
2023-04-16T03:51:12.756Z,15.60
2023-04-16T03:52:46.912Z,15.87
2023-04-16T03:54:22.806Z,15.37
2023-04-16T03:56:02.280Z,14.47
2023-04-16T03:57:34.975Z,14.13
2023-04-16T03:59:14.634Z,14.77
2023-04-16T04:00:47.767Z,15.63
2023-04-16T04:02:22.382Z,16.40
2023-04-16T04:03:55.797Z,16.83
2023-04-16T04:05:28.054Z,15.77
2023-04-16T04:07:01.196Z,17.57
2023-04-16T04:08:34.279Z,17.30
2023-04-16T04:10:10.572Z,17.83
2023-04-16T04:11:46.742Z,16.77
2023-04-16T04:13:21.052Z,17.40
2023-04-16T04:14:56.466Z,15.90
2023-04-16T04:16:29.596Z,18.80
2023-04-16T04:18:05.702Z,18.50
2023-04-16T04:19:42.302Z,18.93
2023-04-16T04:21:20.503Z,20.07
2023-04-16T04:22:52.696Z,15.87
2023-04-16T04:24:28.864Z,18.73
2023-04-16T04:26:03.947Z,18.67
2023-04-16T04:27:37.211Z,17.33
2023-04-16T04:29:10.629Z,14.80
2023-04-16T04:30:45.408Z,15.27
2023-04-16T04:32:19.199Z,12.97
2023-04-16T04:33:54.067Z,15.43
2023-04-16T04:35:27.428Z,17.27
2023-04-16T04:37:00.594Z,13.23
2023-04-16T04:38:34.648Z,12.80
2023-04-16T04:40:09.327Z,11.53
2023-04-16T04:41:42.358Z,12.90
2023-04-16T04:43:15.976Z,12.83
2023-04-16T04:44:49.926Z,14.60
2023-04-16T04:46:24.653Z,14.60
2023-04-16T04:47:57.878Z,13.87
2023-04-16T04:49:31.694Z,13.97
2023-04-16T04:51:05.495Z,14.50
2023-04-16T04:52:37.944Z,14.47
2023-04-16T04:54:11.135Z,16.13
2023-04-16T04:55:43.219Z,16.90
2023-04-16T04:57:16.363Z,16.27
2023-04-16T04:58:51.958Z,15.50
2023-04-16T05:00:25.583Z,17.43
2023-04-16T05:02:03.398Z,17.00
2023-04-16T05:03:36.736Z,16.70
2023-04-16T05:05:10.618Z,17.40
2023-04-16T05:06:44.281Z,17.97
2023-04-16T05:08:17.488Z,17.37
2023-04-16T05:09:49.599Z,17.83
2023-04-16T05:11:22.813Z,17.97
2023-04-16T05:12:56.396Z,16.80
2023-04-16T05:14:29.460Z,16.83
2023-04-16T05:16:02.561Z,16.73
2023-04-16T05:17:37.019Z,17.57
2023-04-16T05:19:10.423Z,16.53
2023-04-16T05:20:43.588Z,16.37
2023-04-16T05:22:18.887Z,16.40
2023-04-16T05:23:51.114Z,16.33
2023-04-16T05:25:24.274Z,15.77
2023-04-16T05:26:58.232Z,15.17
2023-04-16T05:28:32.206Z,14.13
2023-04-16T05:30:05.883Z,13.80
2023-04-16T05:31:39.357Z,13.33
2023-04-16T05:33:12.834Z,12.13
2023-04-16T05:34:45.870Z,12.10
2023-04-16T05:36:17.914Z,11.90
2023-04-16T05:37:50.969Z,11.47
2023-04-16T05:39:24.068Z,11.07
2023-04-16T05:40:57.291Z,10.00
2023-04-16T05:42:30.426Z,10.10
2023-04-16T05:44:04.714Z,9.13
2023-04-16T05:45:40.876Z,9.10
2023-04-16T05:47:13.974Z,9.30
2023-04-16T05:48:48.405Z,7.87
2023-04-16T05:50:21.491Z,8.37
2023-04-16T05:51:53.594Z,9.07
2023-04-16T05:53:27.053Z,11.63
2023-04-16T05:55:01.786Z,12.20
2023-04-16T05:56:35.025Z,11.03
2023-04-16T05:58:08.117Z,10.97
2023-04-16T05:59:41.231Z,9.67
2023-04-16T06:01:14.353Z,9.10
2023-04-16T06:02:47.551Z,9.13
2023-04-16T06:04:22.191Z,8.90
2023-04-16T06:05:55.439Z,8.90
2023-04-16T06:07:28.538Z,9.17
2023-04-16T06:09:01.656Z,9.30
2023-04-16T06:10:34.785Z,9.47
2023-04-16T06:12:07.841Z,9.40
2023-04-16T06:13:40.956Z,8.47
2023-04-16T06:15:14.106Z,9.97
2023-04-16T06:16:47.211Z,9.97
2023-04-16T06:18:20.273Z,10.03
2023-04-16T06:19:54.697Z,10.57
2023-04-16T06:21:28.178Z,11.50
2023-04-16T06:23:01.258Z,10.57
2023-04-16T06:24:35.592Z,11.73
2023-04-16T06:26:08.656Z,10.90
2023-04-16T06:27:41.715Z,11.30
2023-04-16T06:29:15.293Z,10.97
2023-04-16T06:30:48.439Z,10.40
2023-04-16T06:32:21.581Z,10.63
2023-04-16T06:33:54.873Z,10.37
2023-04-16T06:35:29.333Z,10.77
2023-04-16T06:37:02.439Z,10.43
2023-04-16T06:38:35.542Z,9.63
2023-04-16T06:40:09.681Z,10.07
2023-04-16T06:41:43.476Z,9.63
2023-04-16T06:43:15.859Z,9.67
2023-04-16T06:44:48.981Z,9.10
2023-04-16T06:46:22.030Z,9.27
2023-04-16T06:47:55.151Z,9.67
2023-04-16T06:49:28.263Z,8.97
2023-04-16T06:51:03.106Z,9.47
2023-04-16T06:52:36.370Z,9.83
2023-04-16T06:54:09.517Z,8.70
2023-04-16T06:55:42.538Z,9.23
2023-04-16T06:57:16.207Z,8.80
2023-04-16T06:58:49.423Z,9.10
2023-04-16T07:00:22.651Z,9.43
2023-04-16T07:01:55.776Z,9.37
2023-04-16T07:03:29.278Z,8.70
2023-04-16T07:05:02.478Z,8.33
2023-04-16T07:06:36.915Z,8.40
2023-04-16T07:08:10.548Z,8.60
2023-04-16T07:09:43.571Z,8.30
2023-04-16T07:11:17.142Z,8.57
2023-04-16T07:12:50.252Z,8.30
2023-04-16T07:14:23.313Z,9.10
2023-04-16T07:15:56.341Z,8.70
2023-04-16T07:17:29.492Z,8.37
2023-04-16T07:19:02.549Z,8.77
2023-04-16T07:20:36.188Z,8.90
2023-04-16T07:22:10.619Z,8.47
2023-04-16T07:23:43.679Z,8.90
2023-04-16T07:25:16.744Z,9.47
2023-04-16T07:26:49.777Z,9.00
2023-04-16T07:28:22.883Z,9.40
2023-04-16T07:29:55.976Z,9.70
2023-04-16T07:31:29.359Z,9.43
2023-04-16T07:33:04.508Z,9.90
2023-04-16T07:34:37.612Z,9.07
2023-04-16T07:36:10.993Z,9.57
2023-04-16T07:37:45.431Z,9.70
2023-04-16T07:39:18.510Z,9.27
2023-04-16T07:40:51.618Z,9.90
2023-04-16T07:42:24.749Z,10.67
2023-04-16T07:43:57.798Z,9.47
2023-04-16T07:45:30.862Z,9.57
2023-04-16T07:47:05.559Z,10.00
2023-04-16T07:48:38.981Z,10.43
2023-04-16T07:50:12.279Z,9.47
2023-04-16T07:51:45.418Z,10.23
2023-04-16T07:53:19.849Z,10.13
2023-04-16T07:54:52.984Z,10.20
2023-04-16T07:56:26.104Z,10.37
2023-04-16T07:57:59.156Z,10.50
2023-04-16T07:59:32.221Z,9.67
2023-04-16T08:01:05.478Z,11.20
2023-04-16T08:02:38.848Z,10.97
2023-04-16T08:04:12.104Z,10.83
2023-04-16T08:05:45.265Z,10.13
2023-04-16T08:07:18.443Z,10.30
2023-04-16T08:08:52.852Z,10.53
2023-04-16T08:10:26.028Z,10.27
2023-04-16T08:11:59.067Z,10.30
2023-04-16T08:13:33.599Z,11.00
2023-04-16T08:15:08.236Z,11.83
2023-04-16T08:16:41.858Z,11.07
2023-04-16T08:18:15.719Z,11.23
2023-04-16T08:19:47.849Z,11.60
2023-04-16T08:21:21.490Z,11.23
2023-04-16T08:22:55.202Z,10.80
2023-04-16T08:24:29.636Z,10.70
2023-04-16T08:26:03.365Z,10.60
2023-04-16T08:27:36.379Z,11.33
2023-04-16T08:29:09.565Z,10.03
2023-04-16T08:30:42.795Z,11.17
2023-04-16T08:32:15.849Z,11.23
2023-04-16T08:33:48.891Z,10.77
2023-04-16T08:35:22.036Z,10.80
2023-04-16T08:36:55.137Z,11.47
2023-04-16T08:38:28.183Z,12.47
2023-04-16T08:40:02.606Z,12.17
2023-04-16T08:41:37.826Z,11.57
2023-04-16T08:43:13.846Z,12.40
2023-04-16T08:44:50.461Z,13.50
2023-04-16T08:46:25.905Z,12.53
2023-04-16T08:47:59.423Z,12.73
2023-04-16T08:49:36.021Z,13.20
2023-04-16T08:51:12.171Z,12.67
2023-04-16T08:52:51.513Z,13.67
2023-04-16T08:54:35.381Z,13.37
2023-04-16T08:56:12.469Z,12.37
2023-04-16T08:57:49.575Z,13.20
2023-04-16T08:59:23.628Z,12.63
2023-04-16T09:00:57.394Z,11.77
2023-04-16T09:02:31.489Z,13.53
2023-04-16T09:04:06.328Z,11.60
2023-04-16T09:05:40.133Z,10.50
2023-04-16T09:07:13.628Z,10.80
2023-04-16T09:08:47.221Z,11.33
2023-04-16T09:10:21.772Z,10.13
2023-04-16T09:11:56.981Z,11.97
2023-04-16T09:13:32.161Z,12.20
2023-04-16T09:15:06.491Z,12.20
2023-04-16T09:16:40.517Z,10.93
2023-04-16T09:18:13.826Z,12.10
2023-04-16T09:19:47.249Z,12.20
2023-04-16T09:21:23.786Z,11.87
2023-04-16T09:22:57.961Z,11.77
2023-04-16T09:24:31.326Z,11.83
2023-04-16T09:26:06.484Z,12.63
2023-04-16T09:27:41.343Z,11.40
2023-04-16T09:29:35.033Z,10.43
2023-04-16T09:31:15.726Z,11.37
2023-04-16T09:32:49.259Z,10.30
2023-04-16T09:34:22.328Z,8.17
2023-04-16T09:35:55.429Z,9.70
2023-04-16T09:37:30.712Z,10.00
2023-04-16T09:39:05.151Z,9.77
2023-04-16T09:40:39.730Z,8.40
2023-04-16T09:42:13.204Z,7.50
2023-04-16T09:43:58.102Z,8.63
2023-04-16T09:45:33.990Z,8.27
2023-04-16T09:47:08.270Z,8.07
2023-04-16T09:48:41.321Z,8.43
2023-04-16T09:50:18.182Z,7.77
2023-04-16T09:51:54.610Z,7.33
2023-04-16T09:53:28.832Z,6.60
2023-04-16T09:55:01.966Z,6.37
2023-04-16T09:56:40.379Z,5.93
2023-04-16T09:58:13.910Z,6.63
2023-04-16T09:59:48.677Z,7.20
2023-04-16T10:01:21.924Z,7.70
2023-04-16T10:03:05.267Z,8.27
2023-04-16T10:04:49.479Z,8.27
2023-04-16T10:06:25.527Z,8.03
2023-04-16T10:08:01.609Z,7.70
2023-04-16T10:09:39.109Z,8.03
2023-04-16T10:11:12.430Z,7.13
2023-04-16T10:12:45.501Z,6.40
2023-04-16T10:14:18.533Z,7.93
2023-04-16T10:15:53.128Z,8.07
2023-04-16T10:17:29.778Z,7.50
2023-04-16T10:19:03.345Z,7.27
2023-04-16T10:20:37.775Z,6.20
2023-04-16T10:22:10.845Z,5.77
2023-04-16T10:23:44.677Z,6.33
2023-04-16T10:25:18.836Z,6.07
2023-04-16T10:26:53.343Z,5.83
2023-04-16T10:28:27.078Z,6.30
2023-04-16T10:30:00.577Z,5.20
2023-04-16T10:31:35.624Z,5.77
2023-04-16T10:33:09.499Z,5.50
2023-04-16T10:34:42.885Z,4.63
2023-04-16T10:36:17.155Z,4.60
2023-04-16T10:37:51.537Z,6.10
2023-04-16T10:39:25.625Z,5.00
2023-04-16T10:41:03.561Z,6.23
2023-04-16T10:42:36.626Z,5.70
2023-04-16T10:44:12.345Z,5.87
2023-04-16T10:45:45.495Z,5.20
2023-04-16T10:47:20.038Z,5.37
2023-04-16T10:48:55.309Z,4.97
2023-04-16T10:50:36.439Z,5.17
2023-04-16T10:52:12.164Z,5.83
2023-04-16T10:53:45.304Z,6.80
2023-04-16T10:55:18.695Z,6.00
2023-04-16T10:56:52.141Z,5.10
2023-04-16T10:58:31.658Z,5.60
2023-04-16T11:00:22.729Z,6.33
2023-04-16T11:01:57.103Z,6.67
2023-04-16T11:03:32.510Z,6.40
2023-04-16T11:05:06.593Z,6.53
2023-04-16T11:06:39.713Z,6.20
2023-04-16T11:08:18.148Z,6.40
2023-04-16T11:09:56.575Z,6.90
2023-04-16T11:11:39.063Z,7.10
2023-04-16T11:13:14.324Z,6.10
2023-04-16T11:14:49.877Z,6.60
2023-04-16T11:16:22.970Z,5.90
2023-04-16T11:17:56.144Z,6.70
2023-04-16T11:19:30.632Z,6.23
2023-04-16T11:21:03.747Z,6.07
2023-04-16T11:22:37.611Z,6.53
2023-04-16T11:24:13.725Z,5.67
2023-04-16T11:25:46.793Z,5.70
2023-04-16T11:27:19.848Z,4.57
2023-04-16T11:28:53.364Z,4.43
2023-04-16T11:30:37.033Z,4.10
2023-04-16T11:32:10.111Z,4.70
2023-04-16T11:33:44.431Z,4.37
2023-04-16T11:35:20.219Z,5.40
2023-04-16T11:36:53.707Z,6.07
2023-04-16T11:38:36.095Z,5.93
2023-04-16T11:40:10.612Z,5.50
2023-04-16T11:41:43.851Z,5.70
2023-04-16T11:43:17.976Z,5.83
2023-04-16T11:44:55.853Z,5.47
2023-04-16T11:46:40.599Z,5.50
2023-04-16T11:48:13.934Z,5.77
2023-04-16T11:49:47.282Z,5.43
2023-04-16T11:51:23.190Z,5.70
2023-04-16T11:52:58.043Z,5.27
2023-04-16T11:54:34.720Z,6.20
2023-04-16T11:56:07.758Z,5.80
2023-04-16T11:57:41.008Z,5.70
2023-04-16T11:59:15.698Z,5.20
2023-04-16T12:00:49.533Z,5.40
2023-04-16T12:02:39.853Z,5.27
2023-04-16T12:04:14.284Z,4.60
2023-04-16T12:05:47.493Z,6.00
2023-04-16T12:07:21.128Z,5.73
2023-04-16T12:08:54.732Z,4.20
2023-04-16T12:10:28.305Z,3.60
2023-04-16T12:12:01.407Z,5.00
2023-04-16T12:13:39.857Z,5.03
2023-04-16T12:15:12.954Z,4.40
2023-04-16T12:16:46.168Z,4.60
2023-04-16T12:18:21.423Z,4.47
2023-04-16T12:19:58.380Z,3.50
2023-04-16T12:21:39.297Z,4.70
2023-04-16T12:23:24.301Z,4.50
2023-04-16T12:24:59.756Z,4.33
2023-04-16T12:26:41.725Z,3.77
2023-04-16T12:28:16.520Z,2.50
2023-04-16T12:30:05.026Z,2.40
2023-04-16T12:31:38.747Z,2.87
2023-04-16T12:33:16.523Z,3.43
2023-04-16T12:34:52.410Z,3.60
2023-04-16T12:36:26.181Z,2.80
2023-04-16T12:37:59.234Z,3.63
2023-04-16T12:39:33.671Z,3.50
2023-04-16T12:41:06.726Z,3.13
2023-04-16T12:42:39.795Z,2.90
2023-04-16T12:44:17.813Z,3.40
2023-04-16T12:45:51.071Z,2.80
2023-04-16T12:47:24.181Z,3.20
2023-04-16T12:48:57.662Z,2.87
2023-04-16T12:50:30.713Z,2.43
2023-04-16T12:52:04.011Z,2.70
2023-04-16T12:53:37.176Z,3.10
2023-04-16T12:55:12.644Z,3.00
2023-04-16T12:56:46.014Z,44.73
2023-04-16T12:58:19.176Z,22.30
2023-04-16T12:59:52.223Z,33.87
2023-04-16T13:01:25.647Z,6.23
2023-04-16T13:02:58.843Z,2.90
2023-04-16T13:04:32.067Z,3.13
2023-04-16T13:06:05.692Z,3.00
2023-04-16T13:07:38.831Z,2.73
2023-04-16T13:09:12.568Z,2.60
2023-04-16T13:10:47.133Z,2.67
2023-04-16T13:12:20.217Z,2.17
2023-04-16T13:13:53.274Z,2.70
2023-04-16T13:15:26.412Z,2.47
2023-04-16T13:16:59.545Z,2.17
2023-04-16T13:18:32.585Z,39.60
2023-04-16T13:20:06.396Z,20.63
2023-04-16T13:21:39.475Z,2.97
2023-04-16T13:23:11.750Z,2.93
2023-04-16T13:24:44.890Z,2.57
2023-04-16T13:26:19.318Z,2.83
2023-04-16T13:27:52.623Z,3.93
2023-04-16T13:29:25.745Z,3.67
2023-04-16T13:30:58.952Z,3.83
2023-04-16T13:32:32.159Z,3.37
2023-04-16T13:34:05.646Z,4.70
2023-04-16T13:35:38.757Z,27.03
2023-04-16T13:37:11.788Z,4.00
2023-04-16T13:38:44.851Z,3.60
2023-04-16T13:40:17.921Z,3.40
2023-04-16T13:41:52.380Z,4.00
2023-04-16T13:43:25.486Z,6.80
2023-04-16T13:44:58.926Z,4.00
2023-04-16T13:46:32.268Z,7.10
2023-04-16T13:48:06.045Z,4.63
2023-04-16T13:49:39.133Z,6.00
2023-04-16T13:51:12.578Z,5.00
2023-04-16T13:52:45.749Z,4.23
2023-04-16T13:54:18.824Z,4.70
2023-04-16T13:55:51.950Z,4.97
2023-04-16T13:57:27.064Z,4.90
2023-04-16T13:59:00.390Z,4.30
2023-04-16T14:00:33.652Z,4.70
2023-04-16T14:02:06.783Z,4.30
2023-04-16T14:03:40.910Z,4.30
2023-04-16T14:05:14.047Z,4.43
2023-04-16T14:06:47.147Z,4.33
2023-04-16T14:08:21.255Z,4.53
2023-04-16T14:09:53.385Z,4.50
2023-04-16T14:11:26.621Z,4.63
2023-04-16T14:13:01.051Z,4.93
2023-04-16T14:14:34.452Z,5.30
2023-04-16T14:16:07.950Z,5.90
2023-04-16T14:17:41.224Z,5.60
2023-04-16T14:19:14.332Z,7.33
2023-04-16T14:20:47.400Z,5.87
2023-04-16T14:22:20.480Z,14.20
2023-04-16T14:23:53.544Z,6.83
2023-04-16T14:25:27.129Z,10.37
2023-04-16T14:27:00.246Z,5.77
2023-04-16T14:28:35.536Z,6.73
2023-04-16T14:30:09.547Z,6.80
2023-04-16T14:31:42.691Z,6.50
2023-04-16T14:33:15.904Z,6.37
2023-04-16T14:34:48.995Z,6.57
2023-04-16T14:36:22.102Z,7.53
2023-04-16T14:37:55.365Z,15.53
2023-04-16T14:39:28.523Z,25.17
2023-04-16T14:41:01.768Z,7.27
2023-04-16T14:42:36.474Z,7.63
2023-04-16T14:44:10.962Z,7.20
2023-04-16T14:45:44.300Z,13.70
2023-04-16T14:47:17.475Z,28.87
2023-04-16T14:48:50.583Z,50.33
2023-04-16T14:50:23.730Z,33.90
2023-04-16T14:51:57.605Z,14.60
2023-04-16T14:53:30.770Z,10.70
2023-04-16T14:55:05.440Z,19.00
2023-04-16T14:56:38.587Z,14.67
2023-04-16T14:58:11.817Z,9.60
2023-04-16T14:59:46.252Z,8.43
2023-04-16T15:01:19.546Z,7.67
2023-04-16T15:02:52.926Z,7.17
2023-04-16T15:04:27.534Z,7.47
2023-04-16T15:06:00.891Z,8.10
2023-04-16T15:07:33.984Z,8.40
2023-04-16T15:09:07.435Z,9.30
2023-04-16T15:10:42.508Z,8.73
2023-04-16T15:12:17.908Z,8.87
2023-04-16T15:13:52.090Z,12.90
2023-04-16T15:15:26.554Z,12.40
2023-04-16T15:16:59.691Z,10.97
2023-04-16T15:18:33.186Z,11.37
2023-04-16T15:20:09.275Z,9.20
2023-04-16T15:21:42.801Z,8.43
2023-04-16T15:23:15.963Z,8.30
2023-04-16T15:24:49.805Z,25.00
2023-04-16T15:26:23.131Z,14.73
2023-04-16T15:27:56.296Z,22.57
2023-04-16T15:29:29.379Z,8.30
2023-04-16T15:31:03.877Z,8.13
2023-04-16T15:32:37.165Z,8.77
2023-04-16T15:34:10.546Z,8.40
2023-04-16T15:35:44.095Z,9.63
2023-04-16T15:37:17.390Z,9.17
2023-04-16T15:38:50.420Z,9.87
2023-04-16T15:40:23.569Z,10.10
2023-04-16T15:42:00.804Z,10.43
2023-04-16T15:43:35.461Z,9.13
2023-04-16T15:45:08.913Z,8.73
2023-04-16T15:46:43.433Z,8.30
2023-04-16T15:48:16.582Z,9.83
2023-04-16T15:49:49.730Z,9.57
2023-04-16T15:51:23.373Z,8.63
2023-04-16T15:52:56.513Z,8.33
2023-04-16T15:54:30.896Z,7.60
2023-04-16T15:56:04.167Z,8.90
2023-04-16T15:57:37.277Z,7.60
2023-04-16T15:59:10.512Z,7.00
2023-04-16T16:00:46.491Z,7.40
2023-04-16T16:02:21.368Z,7.67
2023-04-16T16:03:54.877Z,8.13
2023-04-16T16:05:28.088Z,7.50
2023-04-16T16:07:02.518Z,7.37
2023-04-16T16:08:38.312Z,7.63
2023-04-16T16:10:13.054Z,6.97
2023-04-16T16:11:46.556Z,6.63
2023-04-16T16:13:19.592Z,6.73
2023-04-16T16:14:54.366Z,6.03
2023-04-16T16:16:28.148Z,6.73
2023-04-16T16:18:02.640Z,6.70
2023-04-16T16:19:35.695Z,6.70
2023-04-16T16:21:08.885Z,5.83
2023-04-16T16:22:45.149Z,6.53
2023-04-16T16:24:18.333Z,6.37
2023-04-16T16:25:52.140Z,6.57
2023-04-16T16:27:25.548Z,6.60
2023-04-16T16:28:58.615Z,6.70
2023-04-16T16:30:31.745Z,6.43
2023-04-16T16:32:05.032Z,6.70
2023-04-16T16:33:40.401Z,6.57
2023-04-16T16:35:14.017Z,6.90
2023-04-16T16:36:47.454Z,7.20
2023-04-16T16:38:20.799Z,7.53
2023-04-16T16:39:53.859Z,6.90
2023-04-16T16:41:27.007Z,7.23
2023-04-16T16:43:00.167Z,7.20
2023-04-16T16:44:33.428Z,7.50
2023-04-16T16:46:07.446Z,7.57
2023-04-16T16:47:40.728Z,7.83
2023-04-16T16:49:15.610Z,7.07
2023-04-16T16:50:48.673Z,6.97
2023-04-16T16:52:24.651Z,7.77
2023-04-16T16:53:57.791Z,7.27
2023-04-16T16:55:30.864Z,7.17
2023-04-16T16:57:04.621Z,6.87
2023-04-16T16:58:37.694Z,6.40
2023-04-16T17:00:16.206Z,6.90
2023-04-16T17:01:49.518Z,6.43
2023-04-16T17:03:22.832Z,6.73
2023-04-16T17:04:58.983Z,7.10
2023-04-16T17:06:33.226Z,6.40
2023-04-16T17:08:06.675Z,5.43
2023-04-16T17:09:39.895Z,5.80
2023-04-16T17:11:12.920Z,5.93
2023-04-16T17:12:46.121Z,4.70
2023-04-16T17:14:19.176Z,5.20
2023-04-16T17:15:52.239Z,4.60
2023-04-16T17:17:25.887Z,5.20
2023-04-16T17:19:00.085Z,5.60
2023-04-16T17:20:34.642Z,5.30
2023-04-16T17:22:08.463Z,5.70
2023-04-16T17:23:41.557Z,6.27
2023-04-16T17:25:14.758Z,5.67
2023-04-16T17:26:47.843Z,5.60
2023-04-16T17:28:21.829Z,5.67
2023-04-16T17:30:01.564Z,5.93
2023-04-16T17:31:34.766Z,5.90
2023-04-16T17:33:07.948Z,5.87
2023-04-16T17:34:41.087Z,5.63
2023-04-16T17:36:15.559Z,6.00
2023-04-16T17:37:48.665Z,6.03
2023-04-16T17:39:21.772Z,5.30
2023-04-16T17:40:56.829Z,5.67
2023-04-16T17:42:30.067Z,6.10
2023-04-16T17:44:03.118Z,6.13
2023-04-16T17:45:36.324Z,6.40
2023-04-16T17:47:09.416Z,6.23
2023-04-16T17:48:43.924Z,6.00
2023-04-16T17:50:16.973Z,5.33
2023-04-16T17:51:51.428Z,5.50
2023-04-16T17:53:24.503Z,5.50
2023-04-16T17:55:01.214Z,5.40
2023-04-16T17:56:34.326Z,5.27
2023-04-16T17:58:07.433Z,5.50
2023-04-16T17:59:40.522Z,5.70
2023-04-16T18:01:12.668Z,5.87
2023-04-16T18:02:45.877Z,6.00
2023-04-16T18:04:19.518Z,6.17
2023-04-16T18:05:52.971Z,5.70
2023-04-16T18:07:27.501Z,5.80
2023-04-16T18:09:00.564Z,5.20
2023-04-16T18:10:33.765Z,5.87
2023-04-16T18:12:07.440Z,6.20
2023-04-16T18:13:40.534Z,5.90
2023-04-16T18:15:13.605Z,6.23
2023-04-16T18:16:48.026Z,6.30
2023-04-16T18:18:21.345Z,6.67
2023-04-16T18:19:54.462Z,6.50
2023-04-16T18:21:27.517Z,6.60
2023-04-16T18:23:02.662Z,7.00
2023-04-16T18:24:36.446Z,7.20
2023-04-16T18:26:10.368Z,6.90
2023-04-16T18:27:44.841Z,7.10
2023-04-16T18:29:18.348Z,6.80
2023-04-16T18:30:51.684Z,6.87
2023-04-16T18:32:24.882Z,8.57
2023-04-16T18:33:58.662Z,9.07
2023-04-16T18:35:31.840Z,8.93
2023-04-16T18:37:05.461Z,9.60
2023-04-16T18:38:52.959Z,9.20
2023-04-16T18:40:34.251Z,9.57
2023-04-16T18:42:07.831Z,9.80
2023-04-16T18:43:41.161Z,10.10
2023-04-16T18:45:19.596Z,9.60
2023-04-16T18:46:54.607Z,10.07
2023-04-16T18:48:27.745Z,10.57
2023-04-16T18:50:00.766Z,10.57
2023-04-16T18:51:33.902Z,10.23
2023-04-16T18:53:06.984Z,9.93
2023-04-16T18:54:42.031Z,10.33
2023-04-16T18:56:15.396Z,9.83
2023-04-16T18:57:48.439Z,9.20
2023-04-16T18:59:21.560Z,9.73
2023-04-16T19:00:54.814Z,10.07
2023-04-16T19:02:27.982Z,10.50
2023-04-16T19:04:01.573Z,10.03
2023-04-16T19:05:34.678Z,11.17
2023-04-16T19:07:07.795Z,11.63
2023-04-16T19:08:40.898Z,12.13
2023-04-16T19:10:15.400Z,14.20
2023-04-16T19:11:50.515Z,13.27
2023-04-16T19:13:23.810Z,13.03
2023-04-16T19:14:56.892Z,13.57
2023-04-16T19:16:30.078Z,13.97
2023-04-16T19:18:03.376Z,13.13
2023-04-16T19:19:36.684Z,13.13
2023-04-16T19:21:10.876Z,13.20
2023-04-16T19:22:44.101Z,13.53
2023-04-16T19:24:17.147Z,12.90
2023-04-16T19:25:51.561Z,13.37
2023-04-16T19:27:24.596Z,13.67
2023-04-16T19:28:57.872Z,14.00
2023-04-16T19:30:31.088Z,14.33
2023-04-16T19:32:04.253Z,14.97
2023-04-16T19:33:37.464Z,14.50
2023-04-16T19:35:11.467Z,15.63
2023-04-16T19:36:45.395Z,16.13
2023-04-16T19:38:18.449Z,16.57
2023-04-16T19:39:51.501Z,17.10
2023-04-16T19:41:25.956Z,16.67
2023-04-16T19:42:59.059Z,16.70
2023-04-16T19:44:32.358Z,16.10
2023-04-16T19:46:05.500Z,15.50
2023-04-16T19:47:38.686Z,15.27
2023-04-16T19:49:12.110Z,14.93
2023-04-16T19:50:45.761Z,13.33
2023-04-16T19:52:18.900Z,12.97
2023-04-16T19:53:51.931Z,12.57
2023-04-16T19:55:25.098Z,12.33
2023-04-16T19:56:59.651Z,11.73
2023-04-16T19:58:32.730Z,12.00
2023-04-16T20:00:08.898Z,11.20
2023-04-16T20:01:41.966Z,11.00
2023-04-16T20:03:15.102Z,11.00
2023-04-16T20:04:48.454Z,10.77
2023-04-16T20:06:21.621Z,10.00
2023-04-16T20:07:54.737Z,10.00
2023-04-16T20:09:27.853Z,10.00
2023-04-16T20:11:01.087Z,9.97
2023-04-16T20:12:35.552Z,9.77
2023-04-16T20:14:08.995Z,10.20
2023-04-16T20:15:42.153Z,9.07
2023-04-16T20:17:19.574Z,9.50
2023-04-16T20:18:54.305Z,9.23
2023-04-16T20:20:27.512Z,8.90
2023-04-16T20:22:00.604Z,9.53
2023-04-16T20:23:33.662Z,9.63
2023-04-16T20:25:07.839Z,8.83
2023-04-16T20:26:40.996Z,9.50
2023-04-16T20:28:16.348Z,10.03
2023-04-16T20:29:49.461Z,9.70
2023-04-16T20:31:22.652Z,10.10
2023-04-16T20:32:55.952Z,9.93